createdAt,value
2023-08-14T00:01:42.107Z,99390.13
2023-08-14T00:04:08.771Z,99394.44
2023-08-14T00:06:35.411Z,99380.78
2023-08-14T00:09:02.026Z,99390.56
2023-08-14T00:11:28.576Z,99385.78
2023-08-14T00:13:57.207Z,99396.59
2023-08-14T00:16:25.456Z,99387.13
2023-08-14T00:18:52.368Z,99388.97
2023-08-14T00:21:19.061Z,99395.56
2023-08-14T00:23:46.124Z,99396.25
2023-08-14T00:26:16.054Z,99393.88
2023-08-14T00:28:42.660Z,99395.47
2023-08-14T00:31:09.298Z,99393.19
2023-08-14T00:33:35.897Z,99388.63
2023-08-14T00:36:02.591Z,99397.41
2023-08-14T00:38:29.155Z,99388.97
2023-08-14T00:40:55.768Z,99394.53
2023-08-14T00:43:23.707Z,99391.69
2023-08-14T00:45:55.530Z,99384.88
2023-08-14T00:48:23.397Z,99374.84
2023-08-14T00:50:50.087Z,99372.88
2023-08-14T00:53:18.691Z,99368.22
2023-08-14T00:55:46.261Z,99359.22
2023-08-14T00:58:13.845Z,99361.50
2023-08-14T01:00:40.760Z,99367.78
2023-08-14T01:03:07.586Z,99368.69
2023-08-14T01:05:34.198Z,99370.38
2023-08-14T01:08:00.830Z,99359.78
2023-08-14T01:10:40.586Z,99359.31
2023-08-14T01:13:26.113Z,99354.19
2023-08-14T01:15:58.422Z,99356.16
2023-08-14T01:18:27.552Z,99356.16
2023-08-14T01:21:10.339Z,99360.47
2023-08-14T01:24:01.651Z,99365.59
2023-08-14T01:26:30.167Z,99353.16
2023-08-14T01:28:57.431Z,99349.75
2023-08-14T01:31:24.051Z,99349.41
2023-08-14T01:33:50.630Z,99351.78
2023-08-14T01:36:24.938Z,99351.13
2023-08-14T01:39:03.156Z,99354.28
2023-08-14T01:41:37.835Z,99352.00
2023-08-14T01:44:08.641Z,99345.88
2023-08-14T01:46:36.703Z,99344.59
2023-08-14T01:49:04.319Z,99348.00
2023-08-14T01:51:31.953Z,99335.81
2023-08-14T01:53:58.688Z,99331.41
2023-08-14T01:56:25.260Z,99338.72
2023-08-14T01:58:51.827Z,99327.66
2023-08-14T02:01:18.393Z,99329.94
2023-08-14T02:03:45.086Z,99344.75
2023-08-14T02:06:11.739Z,99338.84
2023-08-14T02:08:38.351Z,99335.22
2023-08-14T02:11:11.135Z,99329.25
2023-08-14T02:13:37.774Z,99339.53
2023-08-14T02:16:04.926Z,99328.59
2023-08-14T02:18:32.091Z,99334.06
2023-08-14T02:20:58.700Z,99336.78
2023-08-14T02:23:25.309Z,99332.47
2023-08-14T02:25:56.006Z,99332.47
2023-08-14T02:28:22.824Z,99333.13
2023-08-14T02:30:49.439Z,99325.28
2023-08-14T02:33:16.066Z,99319.69
2023-08-14T02:35:42.636Z,99330.19
2023-08-14T02:38:09.530Z,99326.56
2023-08-14T02:40:36.375Z,99317.44
2023-08-14T02:43:04.069Z,99317.00
2023-08-14T02:45:30.903Z,99325.09
2023-08-14T02:47:57.552Z,99311.28
2023-08-14T02:50:24.403Z,99315.16
2023-08-14T02:52:51.214Z,99325.31
2023-08-14T02:55:17.983Z,99321.31
2023-08-14T02:57:44.672Z,99324.19
2023-08-14T03:00:12.004Z,99324.63
2023-08-14T03:02:38.810Z,99323.94
2023-08-14T03:05:05.548Z,99313.13
2023-08-14T03:07:32.139Z,99302.97
2023-08-14T03:09:58.767Z,99304.69
2023-08-14T03:12:25.305Z,99301.72
2023-08-14T03:14:51.885Z,99306.47
2023-08-14T03:17:18.464Z,99292.56
2023-08-14T03:19:45.079Z,99293.72
2023-08-14T03:22:11.677Z,99297.38
2023-08-14T03:24:38.280Z,99293.53
2023-08-14T03:27:04.910Z,99306.66
2023-08-14T03:29:31.473Z,99305.06
2023-08-14T03:31:58.019Z,99301.97
2023-08-14T03:34:24.718Z,99301.28
2023-08-14T03:36:51.274Z,99303.00
2023-08-14T03:39:17.814Z,99307.78
2023-08-14T03:41:45.810Z,99299.22
2023-08-14T03:44:12.578Z,99292.25
2023-08-14T03:46:39.247Z,99283.81
2023-08-14T03:49:06.506Z,99274.91
2023-08-14T03:51:33.323Z,99276.94
2023-08-14T03:53:59.937Z,99260.97
2023-08-14T03:56:26.674Z,99256.75
2023-08-14T03:58:53.314Z,99268.59
2023-08-14T04:01:20.335Z,99267.88
2023-08-14T04:03:47.019Z,99271.84
2023-08-14T04:06:13.681Z,99262.50
2023-08-14T04:08:40.287Z,99250.75
2023-08-14T04:11:06.808Z,99245.19
2023-08-14T04:13:33.559Z,99242.69
2023-08-14T04:16:04.845Z,99245.69
2023-08-14T04:18:31.630Z,99234.19
2023-08-14T04:20:58.599Z,99243.00
2023-08-14T04:23:26.926Z,99239.03
2023-08-14T04:25:54.091Z,99241.34
2023-08-14T04:28:20.688Z,99240.41
2023-08-14T04:30:47.303Z,99252.72
2023-08-14T04:33:13.957Z,99253.31
2023-08-14T04:35:41.307Z,99258.59
2023-08-14T04:38:08.205Z,99266.94
2023-08-14T04:40:34.865Z,99261.81
2023-08-14T04:43:01.514Z,99259.53
2023-08-14T04:45:28.109Z,99258.16
2023-08-14T04:47:57.363Z,99253.56
2023-08-14T04:50:24.441Z,99258.19
2023-08-14T04:52:51.039Z,99263.63
2023-08-14T04:55:17.711Z,99259.69
2023-08-14T04:57:44.718Z,99247.06
2023-08-14T05:00:12.018Z,99247.88
2023-08-14T05:02:38.985Z,99248.06
2023-08-14T05:05:05.828Z,99251.66
2023-08-14T05:07:32.458Z,99241.19
2023-08-14T05:09:59.170Z,99244.72
2023-08-14T05:12:25.792Z,99238.78
2023-08-14T05:14:55.282Z,99260.72
2023-08-14T05:17:22.354Z,99241.03
2023-08-14T05:19:48.982Z,99234.53
2023-08-14T05:22:15.831Z,99236.25
2023-08-14T05:24:42.724Z,99248.16
2023-08-14T05:27:09.371Z,99263.41
2023-08-14T05:29:35.943Z,99266.50
2023-08-14T05:32:02.503Z,99268.72
2023-08-14T05:34:29.093Z,99270.53
2023-08-14T05:36:55.724Z,99266.97
2023-08-14T05:39:22.408Z,99251.72
2023-08-14T05:41:50.692Z,99252.88
2023-08-14T05:44:18.467Z,99256.06
2023-08-14T05:46:48.098Z,99245.88
2023-08-14T05:49:16.104Z,99252.28
2023-08-14T05:51:42.725Z,99245.19
2023-08-14T05:54:10.095Z,99234.06
2023-08-14T05:56:36.804Z,99225.47
2023-08-14T05:59:03.581Z,99226.38
2023-08-14T06:01:30.173Z,99225.66
2023-08-14T06:03:57.038Z,99221.13
2023-08-14T06:06:23.841Z,99235.59
2023-08-14T06:08:50.898Z,99219.91
2023-08-14T06:11:17.550Z,99223.19
2023-08-14T06:13:44.294Z,99228.81
2023-08-14T06:16:10.882Z,99225.41
2023-08-14T06:18:37.432Z,99214.97
2023-08-14T06:21:04.121Z,99207.94
2023-08-14T06:23:30.636Z,99215.88
2023-08-14T06:25:58.541Z,99221.16
2023-08-14T06:28:25.123Z,99213.34
2023-08-14T06:30:51.731Z,99214.22
2023-08-14T06:33:18.353Z,99208.44
2023-08-14T06:35:44.902Z,99198.75
2023-08-14T06:38:11.509Z,99199.22
2023-08-14T06:40:38.066Z,99190.72
2023-08-14T06:43:07.489Z,99195.00
2023-08-14T06:45:34.323Z,99201.28
2023-08-14T06:48:00.986Z,99197.66
2023-08-14T06:50:27.912Z,99198.22
2023-08-14T06:52:54.570Z,99203.91
2023-08-14T06:55:22.072Z,99200.63
2023-08-14T06:57:48.716Z,99211.63
2023-08-14T07:00:16.184Z,99213.91
2023-08-14T07:02:44.575Z,99207.94
2023-08-14T07:05:12.171Z,99213.44
2023-08-14T07:07:39.814Z,99206.25
2023-08-14T07:10:07.601Z,99207.72
2023-08-14T07:12:34.499Z,99216.81
2023-08-14T07:15:05.972Z,99216.56
2023-08-14T07:17:33.107Z,99211.47
2023-08-14T07:19:59.703Z,99210.16
2023-08-14T07:22:26.372Z,99219.84
2023-08-14T07:24:52.980Z,99216.50
2023-08-14T07:27:20.676Z,99223.38
2023-08-14T07:29:48.346Z,99242.41
2023-08-14T07:32:14.882Z,99240.53
2023-08-14T07:34:41.432Z,99244.16
2023-08-14T07:37:08.031Z,99245.03
2023-08-14T07:39:34.693Z,99230.88
2023-08-14T07:42:01.256Z,99234.31
2023-08-14T07:44:27.858Z,99242.59
2023-08-14T07:46:54.620Z,99229.16
2023-08-14T07:49:21.443Z,99245.75
2023-08-14T07:51:48.008Z,99248.88
2023-08-14T07:54:14.789Z,99244.78
2023-08-14T07:56:42.978Z,99253.28
2023-08-14T07:59:11.431Z,99257.81
2023-08-14T08:01:38.100Z,99253.53
2023-08-14T08:04:05.148Z,99254.09
2023-08-14T08:06:43.380Z,99262.09
2023-08-14T08:09:10.466Z,99264.19
2023-08-14T08:11:37.110Z,99263.09
2023-08-14T08:14:06.623Z,99251.41
2023-08-14T08:16:37.544Z,99250.63
2023-08-14T08:19:06.366Z,99242.59
2023-08-14T08:21:33.934Z,99257.50
2023-08-14T08:24:00.941Z,99248.47
2023-08-14T08:26:27.618Z,99248.91
2023-08-14T08:28:54.307Z,99256.50
2023-08-14T08:31:21.088Z,99256.88
2023-08-14T08:33:47.769Z,99253.63
2023-08-14T08:36:14.534Z,99248.09
2023-08-14T08:38:42.799Z,99265.47
2023-08-14T08:41:10.535Z,99276.56
2023-08-14T08:43:37.370Z,99296.34
2023-08-14T08:46:10.405Z,99301.84
2023-08-14T08:48:43.643Z,99328.66
2023-08-14T08:51:10.947Z,99317.59
2023-08-14T08:53:38.524Z,99290.25
2023-08-14T08:56:05.822Z,99297.63
2023-08-14T08:58:32.749Z,99294.16
2023-08-14T09:01:00.741Z,99299.31
2023-08-14T09:03:27.705Z,99289.09
2023-08-14T09:05:55.258Z,99303.69
2023-08-14T09:08:22.018Z,99302.53
2023-08-14T09:10:48.608Z,99300.94
2023-08-14T09:13:16.101Z,99304.47
2023-08-14T09:15:44.173Z,99309.53
2023-08-14T09:18:12.193Z,99314.16
2023-08-14T09:20:40.351Z,99314.09
2023-08-14T09:23:13.671Z,99324.16
2023-08-14T09:25:47.609Z,99315.38
2023-08-14T09:28:14.466Z,99324.34
2023-08-14T09:30:41.639Z,99337.00
2023-08-14T09:33:10.722Z,99346.75
2023-08-14T09:35:38.915Z,99360.69
2023-08-14T09:38:06.084Z,99359.03
2023-08-14T09:40:34.066Z,99357.25
2023-08-14T09:43:01.431Z,99359.13
2023-08-14T09:45:29.499Z,99361.31
2023-08-14T09:48:05.114Z,99370.16
2023-08-14T09:50:32.601Z,99366.25
2023-08-14T09:53:00.649Z,99364.75
2023-08-14T09:55:28.702Z,99352.97
2023-08-14T09:57:56.758Z,99354.97
2023-08-14T10:00:27.430Z,99355.81
2023-08-14T10:05:24.240Z,99361.84
2023-08-14T10:07:54.452Z,99366.25
2023-08-14T10:10:23.630Z,99359.13
2023-08-14T10:13:05.949Z,99356.13
2023-08-14T10:15:41.452Z,99356.59
2023-08-14T10:18:15.936Z,99346.34
2023-08-14T10:20:47.365Z,99345.28
2023-08-14T10:23:16.024Z,99337.25
2023-08-14T10:25:43.955Z,99335.38
2023-08-14T10:28:11.010Z,99327.34
2023-08-14T10:30:39.610Z,99327.53
2023-08-14T10:33:07.670Z,99321.75
2023-08-14T10:35:57.103Z,99316.56
2023-08-14T10:38:40.389Z,99315.81
2023-08-14T10:41:09.003Z,99305.22
2023-08-14T10:43:35.939Z,99293.38
2023-08-14T10:46:14.748Z,99273.50
2023-08-14T10:48:43.424Z,99274.66
2023-08-14T10:51:11.134Z,99249.94
2023-08-14T10:53:38.436Z,99242.44
2023-08-14T10:56:08.461Z,99231.38
2023-08-14T10:58:37.824Z,99215.53
2023-08-14T11:01:10.363Z,99207.88
2023-08-14T11:03:55.508Z,99202.63
2023-08-14T11:06:30.195Z,99186.28
2023-08-14T11:09:05.092Z,99181.06
2023-08-14T11:11:31.805Z,99186.03
2023-08-14T11:13:58.590Z,99183.84
2023-08-14T11:16:26.280Z,99176.03
2023-08-14T11:18:55.764Z,99183.94
2023-08-14T11:23:55.623Z,99164.25
2023-08-14T11:26:22.250Z,99165.69
2023-08-14T11:28:48.786Z,99167.72
2023-08-14T11:31:17.668Z,99172.88
2023-08-14T11:33:46.222Z,99186.38
2023-08-14T11:36:12.844Z,99169.94
2023-08-14T11:38:41.542Z,99174.50
2023-08-14T11:41:08.219Z,99182.34
2023-08-14T11:43:37.385Z,99193.44
2023-08-14T11:46:04.498Z,99210.91
2023-08-14T11:48:33.768Z,99204.25
2023-08-14T11:51:00.442Z,99211.81
2023-08-14T11:53:27.914Z,99211.88
2023-08-14T11:55:54.535Z,99217.09
2023-08-14T11:58:21.116Z,99208.09
2023-08-14T12:00:51.701Z,99192.38
2023-08-14T12:03:19.023Z,99200.28
2023-08-14T12:05:49.033Z,99196.44
2023-08-14T12:08:15.768Z,99186.28
2023-08-14T12:10:42.552Z,99191.00
2023-08-14T12:13:09.103Z,99196.94
2023-08-14T12:15:36.533Z,99191.47
2023-08-14T12:18:03.548Z,99204.13
2023-08-14T12:20:34.719Z,99199.88
2023-08-14T12:23:13.780Z,99190.06
2023-08-14T12:25:40.546Z,99193.69
2023-08-14T12:28:07.150Z,99191.34
2023-08-14T12:30:33.762Z,99202.44
2023-08-14T12:33:00.604Z,99198.13
2023-08-14T12:35:27.417Z,99187.81
2023-08-14T12:37:54.007Z,99187.78
2023-08-14T12:40:20.582Z,99178.25
2023-08-14T12:42:47.237Z,99173.91
2023-08-14T12:45:14.002Z,99180.25
2023-08-14T12:47:40.668Z,99173.53
2023-08-14T12:50:07.755Z,99172.22
2023-08-14T12:52:34.359Z,99158.66
2023-08-14T12:57:30.828Z,99161.69
2023-08-14T12:59:57.392Z,99161.38
2023-08-14T13:02:25.455Z,99168.50
2023-08-14T13:04:56.779Z,99163.28
2023-08-14T13:07:27.049Z,99164.75
2023-08-14T13:09:53.678Z,99172.94
2023-08-14T13:12:20.358Z,99176.84
2023-08-14T13:14:47.179Z,99166.88
2023-08-14T13:17:13.771Z,99164.38
2023-08-14T13:19:41.086Z,99167.78
2023-08-14T13:22:07.642Z,99156.63
2023-08-14T13:24:34.248Z,99166.97
2023-08-14T13:27:08.332Z,99162.69
2023-08-14T13:29:37.031Z,99174.53
2023-08-14T13:32:03.674Z,99173.59
2023-08-14T13:34:30.800Z,99168.25
2023-08-14T13:36:57.380Z,99176.44
2023-08-14T13:39:23.950Z,99175.56
2023-08-14T13:41:50.574Z,99180.25
2023-08-14T13:44:17.432Z,99174.47
2023-08-14T13:46:44.008Z,99174.38
2023-08-14T13:49:11.096Z,99173.25
2023-08-14T13:51:37.660Z,99179.00
2023-08-14T13:54:04.571Z,99180.56
2023-08-14T13:56:31.376Z,99176.38
2023-08-14T13:58:59.327Z,99171.88
2023-08-14T14:01:27.451Z,99177.72
2023-08-14T14:03:54.673Z,99177.88
2023-08-14T14:06:21.643Z,99176.66
2023-08-14T14:08:48.340Z,99177.03
2023-08-14T14:11:15.210Z,99179.13
2023-08-14T14:13:41.855Z,99172.94
2023-08-14T14:16:08.997Z,99170.53
2023-08-14T14:18:35.645Z,99166.25
2023-08-14T14:21:02.245Z,99169.75
2023-08-14T14:23:28.813Z,99163.41
2023-08-14T14:25:55.364Z,99177.00
2023-08-14T14:28:22.064Z,99181.38
2023-08-14T14:30:48.638Z,99171.50
2023-08-14T14:33:15.287Z,99167.56
2023-08-14T14:35:41.840Z,99166.75
2023-08-14T14:38:09.608Z,99163.81
2023-08-14T14:40:36.164Z,99154.38
2023-08-14T14:43:02.834Z,99149.03
2023-08-14T14:47:59.018Z,99147.06
2023-08-14T14:50:29.874Z,99135.84
2023-08-14T14:52:57.993Z,99123.69
2023-08-14T14:55:27.378Z,99127.69
2023-08-14T14:57:53.975Z,99118.06
2023-08-14T15:00:20.680Z,99116.78
2023-08-14T15:02:47.389Z,99116.41
2023-08-14T15:05:22.156Z,99119.38
2023-08-14T15:07:54.174Z,99119.59
2023-08-14T15:10:20.931Z,99130.34
2023-08-14T15:12:47.572Z,99116.38
2023-08-14T15:15:14.320Z,99117.34
2023-08-14T15:17:44.515Z,99113.94
2023-08-14T15:20:13.537Z,99108.03
2023-08-14T15:22:40.787Z,99108.16
2023-08-14T15:25:09.068Z,99113.22
2023-08-14T15:27:36.044Z,99116.63
2023-08-14T15:30:03.348Z,99109.84
2023-08-14T15:32:30.206Z,99112.09
2023-08-14T15:34:56.972Z,99119.53
2023-08-14T15:37:23.749Z,99117.41
2023-08-14T15:39:51.854Z,99110.69
2023-08-14T15:42:18.813Z,99106.66
2023-08-14T15:44:45.518Z,99107.78
2023-08-14T15:47:11.999Z,99108.72
2023-08-14T15:49:38.556Z,99106.72
2023-08-14T15:52:05.378Z,99099.63
2023-08-14T15:54:43.129Z,99098.88
2023-08-14T15:57:18.748Z,99098.34
2023-08-14T15:59:45.488Z,99089.91
2023-08-14T16:02:12.086Z,99090.34
2023-08-14T16:04:38.675Z,99094.53
2023-08-14T16:07:05.334Z,99088.13
2023-08-14T16:09:32.084Z,99081.56
2023-08-14T16:11:58.651Z,99081.47
2023-08-14T16:14:26.118Z,99075.47
2023-08-14T16:16:52.828Z,99074.19
2023-08-14T16:19:21.667Z,99088.91
2023-08-14T16:21:48.404Z,99084.53
2023-08-14T16:24:15.124Z,99081.78
2023-08-14T16:26:41.753Z,99081.63
2023-08-14T16:29:08.301Z,99085.13
2023-08-14T16:31:34.888Z,99082.59
2023-08-14T16:34:01.494Z,99093.19
2023-08-14T16:36:28.169Z,99087.78
2023-08-14T16:38:54.817Z,99078.22
2023-08-14T16:41:21.432Z,99076.59
2023-08-14T16:43:48.076Z,99070.97
2023-08-14T16:46:14.685Z,99065.50
2023-08-14T16:48:41.298Z,99064.03
2023-08-14T16:51:08.082Z,99056.63
2023-08-14T16:53:34.693Z,99052.94
2023-08-14T16:56:01.311Z,99054.59
2023-08-14T16:58:27.914Z,99052.22
2023-08-14T17:00:54.705Z,99057.31
2023-08-14T17:03:21.379Z,99052.72
2023-08-14T17:05:47.935Z,99055.22
2023-08-14T17:08:14.491Z,99061.97
2023-08-14T17:10:45.167Z,99069.69
2023-08-14T17:13:11.883Z,99073.75
2023-08-14T17:15:42.671Z,99077.44
2023-08-14T17:18:09.303Z,99080.66
2023-08-14T17:20:36.008Z,99073.38
2023-08-14T17:23:02.821Z,99082.03
2023-08-14T17:25:29.436Z,99085.56
2023-08-14T17:27:55.993Z,99099.75
2023-08-14T17:30:22.609Z,99094.00
2023-08-14T17:32:53.499Z,99099.19
2023-08-14T17:35:21.567Z,99099.03
2023-08-14T17:37:48.161Z,99098.75
2023-08-14T17:40:14.942Z,99098.00
2023-08-14T17:42:42.273Z,99099.75
2023-08-14T17:45:09.172Z,99092.66
2023-08-14T17:47:36.583Z,99099.44
2023-08-14T17:50:03.296Z,99094.75
2023-08-14T17:52:29.934Z,99095.97
2023-08-14T17:54:56.483Z,99110.50
2023-08-14T17:57:23.396Z,99098.84
2023-08-14T17:59:50.075Z,99101.00
2023-08-14T18:02:16.618Z,99103.16
2023-08-14T18:04:43.142Z,99098.53
2023-08-14T18:07:09.908Z,99106.66
2023-08-14T18:09:36.580Z,99105.25
2023-08-14T18:12:04.545Z,99109.31
2023-08-14T18:14:31.219Z,99107.44
2023-08-14T18:16:57.855Z,99105.97
2023-08-14T18:19:29.478Z,99110.44
2023-08-14T18:21:57.269Z,99109.31
2023-08-14T18:24:23.945Z,99105.03
2023-08-14T18:26:50.598Z,99112.63
2023-08-14T18:29:17.974Z,99117.81
2023-08-14T18:31:44.607Z,99118.22
2023-08-14T18:34:11.232Z,99114.69
2023-08-14T18:36:37.816Z,99119.47
2023-08-14T18:39:04.707Z,99116.34
2023-08-14T18:41:31.367Z,99121.06
2023-08-14T18:43:58.586Z,99116.72
2023-08-14T18:46:27.219Z,99130.53
2023-08-14T18:48:54.039Z,99133.31
2023-08-14T18:51:20.779Z,99131.31
2023-08-14T18:53:49.080Z,99131.31
2023-08-14T18:56:15.652Z,99127.38
2023-08-14T18:58:42.247Z,99125.00
2023-08-14T19:01:08.939Z,99135.22
2023-08-14T19:03:35.633Z,99134.03
2023-08-14T19:06:02.315Z,99136.41
2023-08-14T19:08:28.958Z,99143.13
2023-08-14T19:10:55.493Z,99150.16
2023-08-14T19:13:22.026Z,99152.16
2023-08-14T19:15:50.012Z,99150.53
2023-08-14T19:18:17.266Z,99153.28
2023-08-14T19:20:44.477Z,99160.75
2023-08-14T19:23:11.482Z,99156.03
2023-08-14T19:25:41.268Z,99145.38
2023-08-14T19:28:21.035Z,99158.75
2023-08-14T19:30:48.699Z,99165.03
2023-08-14T19:33:15.680Z,99161.84
2023-08-14T19:35:43.898Z,99161.06
2023-08-14T19:38:11.212Z,99170.50
2023-08-14T19:40:38.642Z,99169.28
2023-08-14T19:43:05.516Z,99170.06
2023-08-14T19:45:33.938Z,99167.66
2023-08-14T19:48:00.586Z,99176.72
2023-08-14T19:50:27.308Z,99174.72
2023-08-14T19:52:53.967Z,99178.25
2023-08-14T19:55:20.556Z,99177.84
2023-08-14T19:57:47.268Z,99179.75
2023-08-14T20:00:14.169Z,99181.34
2023-08-14T20:02:40.786Z,99186.88
2023-08-14T20:05:07.868Z,99183.72
2023-08-14T20:07:34.517Z,99188.47
2023-08-14T20:10:01.656Z,99188.06
2023-08-14T20:12:28.522Z,99186.91
2023-08-14T20:14:55.735Z,99192.41
2023-08-14T20:17:22.431Z,99183.75
2023-08-14T20:19:49.214Z,99189.28
2023-08-14T20:22:15.779Z,99192.41
2023-08-14T20:24:42.326Z,99188.47
2023-08-14T20:27:09.072Z,99186.47
2023-08-14T20:29:35.702Z,99180.53
2023-08-14T20:32:03.077Z,99182.50
2023-08-14T20:34:29.693Z,99183.25
2023-08-14T20:36:56.334Z,99183.63
2023-08-14T20:39:23.497Z,99182.81
2023-08-14T20:41:50.372Z,99192.22
2023-08-14T20:44:16.985Z,99182.34
2023-08-14T20:46:44.612Z,99185.06
2023-08-14T20:49:11.494Z,99200.75
2023-08-14T20:51:38.188Z,99197.13
2023-08-14T20:54:05.104Z,99196.72
2023-08-14T20:56:31.908Z,99206.53
2023-08-14T20:58:58.560Z,99199.84
2023-08-14T21:01:25.140Z,99212.38
2023-08-14T21:03:51.875Z,99210.78
2023-08-14T21:06:18.910Z,99214.34
2023-08-14T21:08:45.588Z,99208.84
2023-08-14T21:11:15.088Z,99208.84
2023-08-14T21:13:42.714Z,99219.50
2023-08-14T21:16:09.327Z,99213.53
2023-08-14T21:18:35.941Z,99212.34
2023-08-14T21:21:02.509Z,99204.81
2023-08-14T21:23:29.065Z,99206.00
2023-08-14T21:25:56.613Z,99202.81
2023-08-14T21:28:23.261Z,99206.34
2023-08-14T21:30:58.693Z,99198.44
2023-08-14T21:33:25.718Z,99200.78
2023-08-14T21:35:52.344Z,99194.06
2023-08-14T21:38:19.076Z,99193.28
2023-08-14T21:40:45.710Z,99198.75
2023-08-14T21:43:12.277Z,99208.13
2023-08-14T21:45:41.233Z,99208.13
2023-08-14T21:48:08.168Z,99201.38
2023-08-14T21:50:37.307Z,99189.16
2023-08-14T21:53:04.707Z,99184.81
2023-08-14T21:55:31.923Z,99189.09
2023-08-14T21:57:58.556Z,99183.16
2023-08-14T22:00:25.292Z,99186.31
2023-08-14T22:02:53.765Z,99177.19
2023-08-14T22:05:20.543Z,99180.31
2023-08-14T22:07:47.128Z,99176.72
2023-08-14T22:10:13.819Z,99176.31
2023-08-14T22:12:45.279Z,99175.91
2023-08-14T22:15:12.182Z,99173.91
2023-08-14T22:17:38.920Z,99182.06
2023-08-14T22:20:06.272Z,99191.09
2023-08-14T22:22:32.794Z,99180.84
2023-08-14T22:24:59.308Z,99185.13
2023-08-14T22:27:25.864Z,99194.13
2023-08-14T22:29:52.466Z,99190.16
2023-08-14T22:32:19.098Z,99197.59
2023-08-14T22:34:45.641Z,99199.50
2023-08-14T22:37:12.215Z,99192.78
2023-08-14T22:39:38.782Z,99189.59
2023-08-14T22:42:05.840Z,99182.91
2023-08-14T22:44:32.471Z,99191.53
2023-08-14T22:46:59.003Z,99193.06
2023-08-14T22:49:25.595Z,99191.88
2023-08-14T22:51:52.211Z,99182.78
2023-08-14T22:54:18.796Z,99195.38
2023-08-14T22:56:45.368Z,99192.19
2023-08-14T22:59:12.107Z,99200.44
2023-08-14T23:01:38.928Z,99187.44
2023-08-14T23:04:05.619Z,99194.09
2023-08-14T23:06:32.317Z,99192.13
2023-08-14T23:08:58.942Z,99190.19
2023-08-14T23:11:25.548Z,99192.94
2023-08-14T23:13:52.103Z,99189.75
2023-08-14T23:16:18.649Z,99181.50
2023-08-14T23:18:45.259Z,99182.66
2023-08-14T23:21:11.961Z,99180.31
2023-08-14T23:23:38.482Z,99177.16
2023-08-14T23:26:08.333Z,99173.63
2023-08-14T23:28:35.144Z,99159.13
2023-08-14T23:31:03.533Z,99161.53
2023-08-14T23:33:30.398Z,99151.28
2023-08-14T23:35:57.564Z,99157.97
2023-08-14T23:38:24.985Z,99158.31
2023-08-14T23:40:51.549Z,99153.56
2023-08-14T23:43:18.145Z,99145.75
2023-08-14T23:45:45.097Z,99146.53
2023-08-14T23:48:11.659Z,99147.78
2023-08-14T23:50:38.596Z,99152.09
2023-08-14T23:53:05.302Z,99156.84
2023-08-14T23:55:31.871Z,99154.53
2023-08-14T23:57:58.423Z,99166.34
